createdAt,value
2022-09-17T00:01:49.896Z,100002.28
2022-09-17T00:04:17.839Z,100007.78
2022-09-17T00:06:46.019Z,100013.06
2022-09-17T00:09:13.849Z,100007.25
2022-09-17T00:11:45.516Z,99970.53
2022-09-17T00:14:22.621Z,100007.72
2022-09-17T00:16:50.500Z,100015.53
2022-09-17T00:19:22.830Z,100022.34
2022-09-17T00:21:54.259Z,100030.03
2022-09-17T00:24:22.998Z,100029.16
2022-09-17T00:26:55.057Z,100021.59
2022-09-17T00:29:29.143Z,100029.78
2022-09-17T00:31:57.118Z,100022.97
2022-09-17T00:34:25.003Z,100024.13
2022-09-17T00:36:52.789Z,100024.97
2022-09-17T00:39:20.718Z,100024.53
2022-09-17T00:41:51.399Z,100027.56
2022-09-17T00:44:48.262Z,100030.59
2022-09-17T00:47:23.324Z,100029.13
2022-09-17T00:49:57.856Z,100030.13
2022-09-17T00:52:31.067Z,100030.34
2022-09-17T00:55:10.118Z,100041.56
2022-09-17T00:57:38.189Z,100040.19
2022-09-17T01:00:09.311Z,100040.41
2022-09-17T01:02:37.602Z,100040.19
2022-09-17T01:05:09.587Z,100035.75
2022-09-17T01:07:52.325Z,100011.38
2022-09-17T01:10:35.185Z,100036.91
2022-09-17T01:13:11.967Z,100038.44
2022-09-17T01:15:45.630Z,100037.56
2022-09-17T01:18:42.120Z,100039.09
2022-09-17T01:21:35.372Z,100037.31
2022-09-17T01:24:44.261Z,100029.75
2022-09-17T01:27:45.553Z,100039.25
2022-09-17T01:30:42.197Z,100040.41
2022-09-17T01:33:16.524Z,100033.25
2022-09-17T01:35:48.589Z,100051.16
2022-09-17T01:38:28.803Z,100047.97
2022-09-17T01:41:33.158Z,100054.84
2022-09-17T01:44:11.446Z,100049.50
2022-09-17T01:46:44.971Z,100053.53
2022-09-17T01:49:16.566Z,100048.13
2022-09-17T01:51:50.716Z,100061.47
2022-09-17T01:54:24.044Z,100062.13
2022-09-17T01:56:57.228Z,100056.09
2022-09-17T01:59:31.453Z,100057.84
2022-09-17T02:02:08.290Z,100064.66
2022-09-17T02:04:39.535Z,100065.50
2022-09-17T02:07:10.598Z,100066.69
2022-09-17T02:09:42.794Z,100067.03
2022-09-17T02:12:14.941Z,100072.06
2022-09-17T02:14:49.735Z,100066.41
2022-09-17T02:17:25.567Z,100059.34
2022-09-17T02:19:57.685Z,100076.75
2022-09-17T02:22:29.348Z,100072.59
2022-09-17T02:25:10.824Z,100075.50
2022-09-17T02:27:46.954Z,100077.00
2022-09-17T02:30:17.911Z,100074.59
2022-09-17T02:32:47.671Z,100084.81
2022-09-17T02:35:18.132Z,100081.41
2022-09-17T02:37:46.436Z,100084.06
2022-09-17T02:40:19.026Z,100090.63
2022-09-17T02:43:12.301Z,100087.72
2022-09-17T02:45:53.293Z,100092.72
2022-09-17T02:48:49.291Z,100098.16
2022-09-17T02:51:34.060Z,100090.38
2022-09-17T02:54:19.372Z,100093.88
2022-09-17T02:56:55.902Z,100098.94
2022-09-17T02:59:30.656Z,100092.50
2022-09-17T03:02:04.301Z,100096.03
2022-09-17T03:04:38.181Z,100103.09
2022-09-17T03:07:09.010Z,100094.78
2022-09-17T03:09:37.262Z,100090.63
2022-09-17T03:12:05.610Z,100086.81
2022-09-17T03:14:35.866Z,100091.50
2022-09-17T03:17:20.691Z,100083.06
2022-09-17T03:19:53.655Z,100098.03
2022-09-17T03:22:21.534Z,100104.22
2022-09-17T03:24:50.252Z,100099.69
2022-09-17T03:27:18.126Z,100100.19
2022-09-17T03:29:53.770Z,100104.06
2022-09-17T03:32:21.573Z,100108.09
2022-09-17T03:34:51.318Z,100107.22
2022-09-17T03:37:22.945Z,100104.28
2022-09-17T03:40:18.896Z,100111.72
2022-09-17T03:42:57.122Z,100106.56
2022-09-17T03:45:24.907Z,100115.00
2022-09-17T03:47:52.564Z,100111.84
2022-09-17T03:50:20.339Z,100118.69
2022-09-17T03:52:52.535Z,100116.53
2022-09-17T03:55:38.963Z,100106.31
2022-09-17T03:58:07.295Z,100127.59
2022-09-17T04:00:37.220Z,100103.53
2022-09-17T04:03:05.355Z,100096.09
2022-09-17T04:05:36.027Z,100133.78
2022-09-17T04:08:13.053Z,100133.91
2022-09-17T04:10:40.957Z,100141.34
2022-09-17T04:13:08.990Z,100146.50
2022-09-17T04:15:36.941Z,100133.63
2022-09-17T04:18:05.026Z,100108.31
2022-09-17T04:20:35.732Z,100137.41
2022-09-17T04:23:07.167Z,100148.00
2022-09-17T04:25:35.347Z,100155.06
2022-09-17T04:28:10.502Z,100143.13
2022-09-17T04:30:38.541Z,100150.19
2022-09-17T04:33:06.680Z,100152.81
2022-09-17T04:35:34.541Z,100145.50
2022-09-17T04:38:18.587Z,100147.53
2022-09-17T04:40:48.453Z,100143.88
2022-09-17T04:43:16.208Z,100149.81
2022-09-17T04:45:47.125Z,100140.22
2022-09-17T04:48:14.953Z,100146.91
2022-09-17T04:50:42.745Z,100144.25
2022-09-17T04:53:19.926Z,100153.56
2022-09-17T04:55:48.344Z,100149.91
2022-09-17T04:58:16.193Z,100147.28
2022-09-17T05:00:44.351Z,100154.06
2022-09-17T05:03:12.264Z,100138.09
2022-09-17T05:05:42.608Z,100149.28
2022-09-17T05:08:11.873Z,100145.88
2022-09-17T05:10:39.662Z,100156.06
2022-09-17T05:13:15.018Z,100157.75
2022-09-17T05:15:42.789Z,100160.88
2022-09-17T05:18:35.585Z,100158.34
2022-09-17T05:21:17.857Z,100159.38
2022-09-17T05:23:47.921Z,100160.63
2022-09-17T05:26:17.940Z,100163.50
2022-09-17T05:28:45.691Z,100170.94
2022-09-17T05:31:15.971Z,100174.97
2022-09-17T05:33:43.811Z,100171.19
2022-09-17T05:36:15.391Z,100183.13
2022-09-17T05:38:43.254Z,100180.50
2022-09-17T05:41:20.294Z,100178.25
2022-09-17T05:43:48.031Z,100180.53
2022-09-17T05:46:16.370Z,100186.81
2022-09-17T05:48:44.582Z,100187.84
2022-09-17T05:51:12.706Z,100186.81
2022-09-17T05:53:40.617Z,100187.22
2022-09-17T05:56:09.374Z,100189.09
2022-09-17T05:58:38.486Z,100191.13
2022-09-17T06:01:06.544Z,100190.09
2022-09-17T06:03:34.395Z,100189.09
2022-09-17T06:06:02.400Z,100190.09
2022-09-17T06:08:30.840Z,100197.31
2022-09-17T06:11:02.487Z,100181.56
2022-09-17T06:13:30.917Z,100203.00
2022-09-17T06:16:00.287Z,100214.22
2022-09-17T06:18:29.259Z,100221.25
2022-09-17T06:20:58.318Z,100214.06
2022-09-17T06:23:27.047Z,100217.81
2022-09-17T06:25:56.826Z,100213.91
2022-09-17T06:28:25.247Z,100210.47
2022-09-17T06:35:13.533Z,100230.69
2022-09-17T06:37:41.430Z,100229.78
2022-09-17T06:40:10.587Z,100231.84
2022-09-17T06:42:38.577Z,100225.69
2022-09-17T06:45:11.065Z,100228.81
2022-09-17T06:47:41.147Z,100231.38
2022-09-17T06:50:09.426Z,100236.31
2022-09-17T06:52:38.702Z,100238.50
2022-09-17T06:55:07.129Z,100236.25
2022-09-17T06:57:41.112Z,100233.50
2022-09-17T07:00:10.442Z,100225.47
2022-09-17T07:02:38.199Z,100231.50
2022-09-17T07:05:07.053Z,100235.78
2022-09-17T07:07:39.243Z,100231.13
2022-09-17T07:10:08.117Z,100239.69
2022-09-17T07:12:42.914Z,100234.03
2022-09-17T07:15:13.804Z,100224.72
2022-09-17T07:17:45.698Z,100229.50
2022-09-17T07:20:19.898Z,100225.19
2022-09-17T07:22:59.015Z,100230.22
2022-09-17T07:25:27.446Z,100200.59
2022-09-17T07:27:55.341Z,100223.72
2022-09-17T07:30:23.543Z,100226.88
2022-09-17T07:32:51.347Z,100224.69
2022-09-17T07:35:19.240Z,100234.28
2022-09-17T07:37:47.492Z,100235.69
2022-09-17T07:40:16.794Z,100227.63
2022-09-17T07:42:44.653Z,100237.31
2022-09-17T07:45:12.381Z,100227.22
2022-09-17T07:47:41.446Z,100229.25
2022-09-17T07:50:10.535Z,100224.09
2022-09-17T07:52:38.289Z,100232.50
2022-09-17T07:55:07.430Z,100227.19
2022-09-17T07:57:36.766Z,100232.75
2022-09-17T08:00:05.689Z,100239.53
2022-09-17T08:02:39.397Z,100233.47
2022-09-17T08:05:07.739Z,100226.38
2022-09-17T08:07:35.520Z,100236.72
2022-09-17T08:10:03.512Z,100241.88
2022-09-17T08:12:31.361Z,100241.53
2022-09-17T08:15:00.642Z,100239.00
2022-09-17T08:17:28.531Z,100232.16
2022-09-17T08:19:56.344Z,100231.13
2022-09-17T08:22:24.272Z,100227.03
2022-09-17T08:24:52.118Z,100224.13
2022-09-17T08:27:19.898Z,100215.47
2022-09-17T08:29:47.690Z,100222.13
2022-09-17T08:32:16.931Z,100213.31
2022-09-17T08:34:44.903Z,100209.97
2022-09-17T08:37:12.674Z,100214.19
2022-09-17T08:39:40.471Z,100204.00
2022-09-17T08:42:14.067Z,100205.69
2022-09-17T08:44:46.052Z,100208.16
2022-09-17T08:47:22.314Z,100202.56
2022-09-17T08:49:53.888Z,100205.31
2022-09-17T08:52:43.068Z,100211.81
2022-09-17T08:55:24.667Z,100215.50
2022-09-17T08:58:04.167Z,100212.66
2022-09-17T09:00:41.942Z,100209.59
2022-09-17T09:03:23.052Z,100218.94
2022-09-17T09:05:53.468Z,100213.88
2022-09-17T09:08:30.414Z,100199.22
2022-09-17T09:11:00.943Z,100221.69
2022-09-17T09:13:32.327Z,100218.59
2022-09-17T09:16:01.965Z,100207.16
2022-09-17T09:18:36.354Z,100171.06
2022-09-17T09:21:19.308Z,100203.25
2022-09-17T09:23:54.204Z,100211.19
2022-09-17T09:26:23.651Z,100175.44
2022-09-17T09:29:15.852Z,100200.56
2022-09-17T09:32:15.565Z,100189.78
2022-09-17T09:34:46.707Z,100201.69
2022-09-17T09:37:21.148Z,100195.91
2022-09-17T09:39:52.018Z,100197.16
2022-09-17T09:42:29.174Z,100198.75
2022-09-17T09:45:04.707Z,100196.47
2022-09-17T09:47:46.743Z,100163.34
2022-09-17T09:51:01.683Z,100156.44
2022-09-17T09:53:33.128Z,100187.59
2022-09-17T09:56:25.118Z,100190.25
2022-09-17T09:58:53.113Z,100199.25
2022-09-17T10:01:23.039Z,100197.69
2022-09-17T10:03:54.150Z,100170.34
2022-09-17T10:06:25.225Z,100204.38
2022-09-17T10:09:13.897Z,100193.91
2022-09-17T10:11:42.510Z,100181.06
2022-09-17T10:14:25.570Z,100186.56
2022-09-17T10:17:19.485Z,100189.03
2022-09-17T10:19:48.416Z,100194.78
2022-09-17T10:22:27.019Z,100185.03
2022-09-17T10:24:56.907Z,100189.09
2022-09-17T10:27:26.551Z,100151.19
2022-09-17T10:30:17.121Z,100174.16
2022-09-17T10:32:45.462Z,100190.13
2022-09-17T10:35:28.763Z,100163.84
2022-09-17T10:37:58.029Z,100171.38
2022-09-17T10:40:31.743Z,100185.78
2022-09-17T10:43:24.573Z,100183.09
2022-09-17T10:45:59.839Z,100179.19
2022-09-17T10:48:31.983Z,100176.75
2022-09-17T10:51:02.969Z,100189.09
2022-09-17T10:53:32.221Z,100183.88
2022-09-17T10:56:11.325Z,100168.06
2022-09-17T10:58:55.863Z,100170.38
2022-09-17T11:01:41.666Z,100161.81
2022-09-17T11:04:25.961Z,100172.00
2022-09-17T11:07:15.318Z,100164.13
2022-09-17T11:09:54.496Z,100166.13
2022-09-17T11:12:33.492Z,100177.34
2022-09-17T11:15:08.653Z,100164.47
2022-09-17T11:18:02.552Z,100171.53
2022-09-17T11:20:48.784Z,100167.84
2022-09-17T11:23:30.553Z,100172.44
2022-09-17T11:26:02.392Z,100192.88
2022-09-17T11:28:45.408Z,100184.63
2022-09-17T11:31:26.909Z,100199.16
2022-09-17T11:34:24.792Z,100195.97
2022-09-17T11:36:59.722Z,100188.25
2022-09-17T11:39:37.845Z,100195.50
2022-09-17T11:42:11.772Z,100177.28
2022-09-17T11:44:45.714Z,100181.06
2022-09-17T11:47:17.845Z,100180.47
2022-09-17T11:49:50.438Z,100165.91
2022-09-17T11:52:23.918Z,100172.84
2022-09-17T11:54:57.260Z,100172.88
2022-09-17T11:57:32.948Z,100169.78
2022-09-17T12:00:05.993Z,100185.03
2022-09-17T12:02:49.216Z,100190.63
2022-09-17T12:05:22.105Z,100171.78
2022-09-17T12:07:57.701Z,100179.88
2022-09-17T12:10:38.407Z,100181.34
2022-09-17T12:13:28.386Z,100195.88
2022-09-17T12:16:08.953Z,100189.75
2022-09-17T12:18:48.776Z,100186.78
2022-09-17T12:21:22.304Z,100194.41
2022-09-17T12:23:54.138Z,100212.00
2022-09-17T12:26:57.254Z,100213.75
2022-09-17T12:29:49.035Z,100197.78
2022-09-17T12:32:51.737Z,100181.25
2022-09-17T12:36:02.368Z,100188.84
2022-09-17T12:38:48.943Z,100179.25
2022-09-17T12:41:21.471Z,100176.03
2022-09-17T12:44:17.143Z,100182.00
2022-09-17T12:47:04.028Z,100207.25
2022-09-17T12:49:58.394Z,100224.28
2022-09-17T12:52:38.073Z,100217.53
2022-09-17T12:55:41.490Z,100212.06
2022-09-17T12:58:24.554Z,100218.22
2022-09-17T13:01:00.465Z,100226.97
2022-09-17T13:03:34.614Z,100216.59
2022-09-17T13:06:42.110Z,100206.06
2022-09-17T13:09:54.792Z,100195.69
2022-09-17T13:12:34.510Z,100195.41
2022-09-17T13:15:21.998Z,100191.16
2022-09-17T13:18:13.214Z,100183.63
2022-09-17T13:21:05.542Z,100177.66
2022-09-17T13:23:41.386Z,100171.47
2022-09-17T13:26:10.509Z,100183.97
2022-09-17T13:28:50.605Z,100182.88
2022-09-17T13:31:23.417Z,100178.59
2022-09-17T13:33:59.554Z,100184.41
2022-09-17T13:36:44.486Z,100192.41
2022-09-17T13:39:28.565Z,100204.41
2022-09-17T13:42:03.911Z,100205.22
2022-09-17T13:44:31.906Z,100184.41
2022-09-17T13:47:17.102Z,100173.81
2022-09-17T13:49:53.360Z,100161.88
2022-09-17T13:52:35.797Z,100166.69
2022-09-17T13:55:04.507Z,100161.25
2022-09-17T13:57:35.416Z,100167.44
2022-09-17T14:00:03.558Z,100168.44
2022-09-17T14:02:39.675Z,100163.72
2022-09-17T14:05:40.647Z,100153.19
2022-09-17T14:08:31.611Z,100155.56
2022-09-17T14:11:26.264Z,100156.84
2022-09-17T14:13:55.169Z,100156.63
2022-09-17T14:16:47.655Z,100153.81
2022-09-17T14:19:28.557Z,100155.53
2022-09-17T14:22:02.436Z,100150.09
2022-09-17T14:24:37.635Z,100144.91
2022-09-17T14:27:14.448Z,100137.84
2022-09-17T14:30:00.400Z,100143.28
2022-09-17T14:32:32.343Z,100133.06
2022-09-17T14:35:05.103Z,100145.94
2022-09-17T14:37:34.783Z,100116.41
2022-09-17T14:40:12.610Z,100131.59
2022-09-17T14:42:48.455Z,100124.19
2022-09-17T14:45:20.608Z,100131.78
2022-09-17T14:47:48.422Z,100124.31
2022-09-17T14:50:22.615Z,100135.53
2022-09-17T14:52:50.790Z,100139.31
2022-09-17T14:55:22.064Z,100129.63
2022-09-17T14:57:54.533Z,100126.56
2022-09-17T15:00:25.943Z,100124.03
2022-09-17T15:02:59.477Z,100121.09
2022-09-17T15:05:31.660Z,100125.66
2022-09-17T15:08:09.629Z,100121.13
2022-09-17T15:10:48.024Z,100123.94
2022-09-17T15:13:19.363Z,100122.94
2022-09-17T15:16:17.660Z,100118.69
2022-09-17T15:18:50.631Z,100112.53
2022-09-17T15:21:30.231Z,100111.63
2022-09-17T15:24:19.258Z,100109.13
2022-09-17T15:26:51.768Z,100105.25
2022-09-17T15:29:24.285Z,100118.59
2022-09-17T15:31:52.308Z,100109.81
2022-09-17T15:34:20.176Z,100119.81
2022-09-17T15:37:07.322Z,100114.50
2022-09-17T15:39:45.847Z,100126.34
2022-09-17T15:42:22.806Z,100107.69
2022-09-17T15:44:51.332Z,100134.88
2022-09-17T15:47:51.702Z,100155.66
2022-09-17T15:50:21.663Z,100134.22
2022-09-17T15:52:50.315Z,100140.59
2022-09-17T15:55:35.727Z,100144.91
2022-09-17T15:58:20.328Z,100159.56
2022-09-17T16:00:48.663Z,100163.34
2022-09-17T16:04:05.993Z,100158.84
2022-09-17T16:06:55.997Z,100169.28
2022-09-17T16:09:53.252Z,100164.91
2022-09-17T16:12:26.846Z,100157.06
2022-09-17T16:14:58.284Z,100154.09
2022-09-17T16:17:32.998Z,100147.16
2022-09-17T16:20:06.136Z,100156.84
2022-09-17T16:22:34.862Z,100159.16
2022-09-17T16:25:06.707Z,100162.91
2022-09-17T16:27:40.657Z,100158.91
2022-09-17T16:30:16.719Z,100161.94
2022-09-17T16:32:44.927Z,100168.00
2022-09-17T16:35:17.416Z,100165.75
2022-09-17T16:37:45.988Z,100162.78
2022-09-17T16:40:14.986Z,100164.44
2022-09-17T16:42:42.823Z,100159.25
2022-09-17T16:45:12.617Z,100159.91
2022-09-17T16:47:43.754Z,100154.34
2022-09-17T16:50:14.110Z,100163.06
2022-09-17T16:52:48.350Z,100162.31
2022-09-17T16:55:18.457Z,100164.69
2022-09-17T16:57:47.010Z,100169.47
2022-09-17T17:00:19.695Z,100162.56
2022-09-17T17:02:54.058Z,100158.91
2022-09-17T17:05:22.086Z,100179.56
2022-09-17T17:07:56.621Z,100171.75
2022-09-17T17:10:27.456Z,100166.56
2022-09-17T17:12:59.001Z,100172.75
2022-09-17T17:15:28.322Z,100179.56
2022-09-17T17:18:02.318Z,100184.72
2022-09-17T17:20:31.985Z,100183.84
2022-09-17T17:23:03.703Z,100190.16
2022-09-17T17:25:32.380Z,100193.81
2022-09-17T17:28:09.418Z,100187.38
2022-09-17T17:30:48.484Z,100191.06
2022-09-17T17:33:16.346Z,100197.13
2022-09-17T17:35:45.470Z,100200.75
2022-09-17T17:38:15.375Z,100205.19
2022-09-17T17:40:45.503Z,100206.94
2022-09-17T17:43:13.880Z,100203.91
2022-09-17T17:45:58.072Z,100209.59
2022-09-17T17:48:25.998Z,100205.75
2022-09-17T17:50:56.825Z,100208.03
2022-09-17T17:53:24.858Z,100216.22
2022-09-17T17:56:00.197Z,100218.38
2022-09-17T17:58:28.268Z,100231.84
2022-09-17T18:00:56.715Z,100239.28
2022-09-17T18:03:26.512Z,100233.22
2022-09-17T18:05:56.459Z,100243.19
2022-09-17T18:08:24.649Z,100243.06
2022-09-17T18:10:53.964Z,100244.28
2022-09-17T18:13:22.352Z,100248.06
2022-09-17T18:15:55.463Z,100242.91
2022-09-17T18:18:26.145Z,100236.75
2022-09-17T18:20:55.745Z,100240.66
2022-09-17T18:23:23.745Z,100248.31
2022-09-17T18:25:55.855Z,100240.75
2022-09-17T18:28:31.911Z,100239.47
2022-09-17T18:31:05.616Z,100245.94
2022-09-17T18:33:35.992Z,100256.63
2022-09-17T18:36:06.019Z,100258.88
2022-09-17T18:38:35.398Z,100244.63
2022-09-17T18:41:05.718Z,100248.78
2022-09-17T18:43:34.496Z,100241.50
2022-09-17T18:46:08.149Z,100244.13
2022-09-17T18:48:37.770Z,100245.03
2022-09-17T18:51:07.293Z,100255.09
2022-09-17T18:53:37.508Z,100256.84
2022-09-17T18:56:08.327Z,100263.81
2022-09-17T18:58:36.156Z,100260.03
2022-09-17T19:01:08.834Z,100243.13
2022-09-17T19:03:38.391Z,100269.50
2022-09-17T19:06:09.053Z,100267.47
2022-09-17T19:08:37.267Z,100262.94
2022-09-17T19:11:06.127Z,100268.09
2022-09-17T19:13:35.771Z,100268.22
2022-09-17T19:16:04.635Z,100269.25
2022-09-17T19:18:33.336Z,100266.84
2022-09-17T19:21:07.417Z,100278.72
2022-09-17T19:23:36.034Z,100274.53
2022-09-17T19:26:22.929Z,100274.81
2022-09-17T19:28:53.050Z,100261.69
2022-09-17T19:31:22.389Z,100281.88
2022-09-17T19:33:51.431Z,100273.31
2022-09-17T19:36:21.883Z,100275.94
2022-09-17T19:38:49.994Z,100278.34
2022-09-17T19:41:19.664Z,100279.84
2022-09-17T19:43:48.152Z,100244.50
2022-09-17T19:46:27.497Z,100280.75
2022-09-17T19:48:57.523Z,100278.06
2022-09-17T19:51:29.531Z,100292.44
2022-09-17T19:53:57.658Z,100285.63
2022-09-17T19:56:31.787Z,100296.59
2022-09-17T19:58:59.561Z,100290.94
2022-09-17T20:01:31.464Z,100303.78
2022-09-17T20:04:03.407Z,100303.91
2022-09-17T20:06:34.363Z,100318.69
2022-09-17T20:09:08.699Z,100318.69
2022-09-17T20:11:42.425Z,100325.84
2022-09-17T20:14:12.441Z,100329.75
2022-09-17T20:16:43.394Z,100326.84
2022-09-17T20:19:15.392Z,100328.47
2022-09-17T20:21:44.929Z,100330.97
2022-09-17T20:24:13.419Z,100331.63
2022-09-17T20:26:41.809Z,100317.00
2022-09-17T20:29:10.816Z,100323.91
2022-09-17T20:31:38.937Z,100295.59
2022-09-17T20:34:07.127Z,100311.25
2022-09-17T20:36:36.176Z,100331.16
2022-09-17T20:39:22.495Z,100322.44
2022-09-17T20:41:50.797Z,100327.09
2022-09-17T20:44:18.820Z,100328.59
2022-09-17T20:46:46.923Z,100289.72
2022-09-17T20:49:14.848Z,100326.28
2022-09-17T20:51:45.897Z,100327.50
2022-09-17T20:54:17.808Z,100325.22
2022-09-17T20:56:46.482Z,100322.91
2022-09-17T20:59:18.790Z,100333.88
2022-09-17T21:01:49.785Z,100327.47
2022-09-17T21:04:20.021Z,100320.19
2022-09-17T21:06:49.342Z,100320.06
2022-09-17T21:09:18.757Z,100334.31
2022-09-17T21:11:47.953Z,100340.84
2022-09-17T21:14:17.431Z,100344.88
2022-09-17T21:16:46.467Z,100352.44
2022-09-17T21:19:16.052Z,100343.38
2022-09-17T21:21:47.911Z,100362.03
2022-09-17T21:24:15.701Z,100361.25
2022-09-17T21:26:45.851Z,100357.72
2022-09-17T21:29:13.825Z,100365.75
2022-09-17T21:31:41.916Z,100368.44
2022-09-17T21:34:13.175Z,100373.47
2022-09-17T21:36:44.848Z,100377.59
2022-09-17T21:39:14.770Z,100381.00
2022-09-17T21:41:44.527Z,100380.84
2022-09-17T21:44:13.373Z,100382.22
2022-09-17T21:46:42.889Z,100388.16
2022-09-17T21:49:16.396Z,100384.47
2022-09-17T21:51:44.724Z,100387.59
2022-09-17T21:54:15.701Z,100381.72
2022-09-17T21:56:45.889Z,100391.28
2022-09-17T21:59:15.540Z,100392.16
2022-09-17T22:01:46.725Z,100390.41
2022-09-17T22:04:16.907Z,100388.75
2022-09-17T22:06:45.873Z,100392.03
2022-09-17T22:09:15.904Z,100407.56
2022-09-17T22:11:45.572Z,100402.00
2022-09-17T22:14:15.705Z,100407.81
2022-09-17T22:16:45.844Z,100407.56
2022-09-17T22:19:15.781Z,100407.25
2022-09-17T22:21:46.635Z,100418.81
2022-09-17T22:24:15.941Z,100407.88
2022-09-17T22:26:47.706Z,100396.66
2022-09-17T22:29:17.299Z,100381.22
2022-09-17T22:31:45.734Z,100381.69
2022-09-17T22:34:15.701Z,100396.59
2022-09-17T22:36:43.557Z,100399.59
2022-09-17T22:39:11.440Z,100386.16
2022-09-17T22:41:45.080Z,100399.72
2022-09-17T22:44:16.578Z,100394.41
2022-09-17T22:46:46.633Z,100394.91
2022-09-17T22:49:15.094Z,100390.59
2022-09-17T22:51:43.621Z,100386.03
2022-09-17T22:54:12.748Z,100391.25
2022-09-17T22:56:41.253Z,100367.13
2022-09-17T22:59:12.376Z,100389.97
2022-09-17T23:01:42.208Z,100381.25
2022-09-17T23:04:10.685Z,100376.41
2022-09-17T23:06:41.938Z,100382.94
2022-09-17T23:09:10.482Z,100381.97
2022-09-17T23:11:40.461Z,100383.47
2022-09-17T23:14:13.186Z,100383.66
2022-09-17T23:16:44.541Z,100387.09
2022-09-17T23:19:15.474Z,100384.00
2022-09-17T23:21:43.815Z,100367.34
2022-09-17T23:24:17.999Z,100368.25
2022-09-17T23:26:45.898Z,100375.66
2022-09-17T23:29:14.032Z,100371.09
2022-09-17T23:31:43.385Z,100374.19
2022-09-17T23:34:11.510Z,100373.78
2022-09-17T23:36:40.608Z,100373.50
2022-09-17T23:39:10.187Z,100365.25
2022-09-17T23:41:40.563Z,100360.53
2022-09-17T23:44:14.975Z,100390.03
2022-09-17T23:46:46.786Z,100386.94
2022-09-17T23:49:15.342Z,100383.84
2022-09-17T23:51:43.515Z,100379.41
2022-09-17T23:54:11.582Z,100386.53
2022-09-17T23:56:45.208Z,100389.06
2022-09-17T23:59:13.147Z,100387.88
